Aérodrome :
LOGIN :

S'inscrire | Disclaimer

   EN    FR    IT 

 










Légende :    VFR   VFR Marginal   IFR   IFR Intensif   IFR Très Intensif
Visi : 
Plafond : 
>= 8 km
>= 3000ft
5 à 8 km
1000 à 3000 ft
1500m à 5 km
500 à 1000 ft
800 à 1500m
200 à 500 ft
< 800m
< 200 ft
Symboles :   Orages  Brouillard  Fortes neiges  Fortes précipitations  Vent > 20 kt
SIGMETs :   Divers  Orages  Givrage  Turbulence  Onde Orograph.  Cendres Volcan.






- Altitude de l'aérodrome : 74 ft
- Code IATA : MRS


LFML - Marseille / Marignane

DERNIER METAR :
  • 150900Z AUTO 27015KT CAVOK 17/13 Q1011 NOSIG

METARs EXPIRÉS :
  • 150830Z AUTO 27010KT 9999 FEW023 OVC120 17/14 Q1011 NOSIG
  • 150800Z AUTO 26010KT 9999 FEW033 BKN054 BKN086 17/14 Q1011 TEMPO 27015G25KT
  • 150730Z AUTO 24010KT 9999 FEW012 SCT029 BKN050 17/14 Q1011 TEMPO 27015G25KT
  • 150700Z AUTO 21008KT 7000 -RA SCT009/// SCT013/// BKN022/// ///TCU 17/16 Q1010 TEMPO 1500 TSRA BR BKN010CB BECMG 27010KT
  • 150630Z AUTO 20004KT 160V230 8000 2700 RA FEW017/// SCT064/// BKN076/// ///TCU 18/16 Q1010 TEMPO 13025G40KT 1500 TSRA BR BKN010CB

TAF TAF LFML
Valide du 15 à 09h jusqu'au 16 à 15h UTC


150800Z 1509/1615 25010KT 9999 -RA FEW033 BKN054 TX21/1615Z TN10/1606Z
BECMG 1509/1510 30015KT
BECMG 1521/1522 30010KT
BECMG 1607/1608 VRB05KT
ATIS : +33 4 42 31 15 15



MET'MAP, la Météo Aéronautique d'un coup d'oeil ! - Copyright ORBIFLY Décembre 2007 - Disclaimer

ORBIFLY MET'MAP TEAM :

Programmation & Développement : Alexandra Zaïnal
Conception & Développement : Baudouin d'Aumeries
Co-Programmation & Développement : Marc-Olivier Méhu
Soutien technique & logistique : Manuel Goepfert

Contact : metmap@orbifly.com




SOURCES & CREDITS :

   NOAA